Time;durP1;ratioP1;P1;durP2;ratioP2;P2;SDS_P1;SDS_P2;PMS_P1;PMS_P2;Temp;Humidity;BMP_temperature;BMP_pressure;BME280_temperature;BME280_humidity;BME280_pressure;Samples;Min_cycle;Max_cycle;Signal;HPM_P1;HPM_P2
2022/04/15 00:01:45;;;;;;;4.40;2.20;;;16.10;99.90;;;;;;5016041;28;20116;-88
2022/04/15 00:04:10;;;;;;;3.38;2.00;;;16.00;99.90;;;;;;5016143;28;20120;-88
2022/04/15 00:06:36;;;;;;;5.65;2.10;;;16.00;99.90;;;;;;5016066;28;20503;-88
2022/04/15 00:09:03;;;;;;;5.28;2.15;;;16.00;99.90;;;;;;5015946;28;20535;-88
2022/04/15 00:11:32;;;;;;;3.58;1.92;;;16.00;99.90;;;;;;5016566;28;20033;-88
2022/04/15 00:13:58;;;;;;;5.45;1.92;;;16.00;99.90;;;;;;5015927;28;20032;-88
2022/04/15 00:16:24;;;;;;;4.55;2.22;;;16.00;99.90;;;;;;5015816;28;20029;-88
2022/04/15 00:18:49;;;;;;;4.57;2.30;;;16.00;99.90;;;;;;5015872;28;20025;-88
2022/04/15 00:21:15;;;;;;;6.88;2.15;;;16.00;99.90;;;;;;5015591;28;20049;-88
2022/04/15 00:23:41;;;;;;;9.18;2.05;;;16.00;99.90;;;;;;5015799;28;20029;-88
2022/04/15 00:26:07;;;;;;;3.17;1.80;;;16.00;99.90;;;;;;5015613;28;20039;-88
2022/04/15 00:28:33;;;;;;;6.05;2.00;;;16.00;99.90;;;;;;5033356;28;20075;-88
2022/04/15 00:30:58;;;;;;;3.00;2.10;;;16.00;99.90;;;;;;5016180;28;20037;-88
2022/04/15 00:33:24;;;;;;;7.70;2.03;;;16.00;99.90;;;;;;5015637;28;20048;-88
2022/04/15 00:35:50;;;;;;;5.60;2.40;;;15.90;99.90;;;;;;5033265;28;20037;-88
2022/04/15 00:38:17;;;;;;;4.22;2.40;;;15.90;99.90;;;;;;5015528;28;20030;-89
2022/04/15 00:40:43;;;;;;;3.17;1.85;;;15.90;99.90;;;;;;5015469;28;20030;-88
2022/04/15 00:43:08;;;;;;;3.13;1.83;;;15.90;99.90;;;;;;5033221;28;20100;-88
2022/04/15 00:45:34;;;;;;;4.50;2.40;;;15.90;99.90;;;;;;5015345;28;20076;-88
2022/04/15 00:48:00;;;;;;;7.10;2.03;;;15.90;99.90;;;;;;5033158;28;20025;-88
2022/04/15 00:50:31;;;;;;;7.15;2.50;;;15.90;99.90;;;;;;5033365;28;20120;-88
2022/04/15 00:53:00;;;;;;;5.70;2.22;;;15.90;99.90;;;;;;5015367;28;20036;-88
2022/04/15 00:55:27;;;;;;;7.18;2.38;;;15.90;99.90;;;;;;5033021;28;20029;-88
2022/04/15 00:58:02;;;;;;;5.38;2.10;;;15.90;99.90;;;;;;5015339;28;20121;-88
2022/04/15 01:00:30;;;;;;;3.42;2.20;;;15.80;99.90;;;;;;5015200;28;20484;-88
2022/04/15 01:03:00;;;;;;;4.53;2.15;;;15.90;99.90;;;;;;5015198;28;20485;-88
2022/04/15 01:05:27;;;;;;;6.85;2.22;;;15.80;99.90;;;;;;5015108;28;20400;-89
2022/04/15 01:07:57;;;;;;;4.85;2.08;;;15.80;99.90;;;;;;5015134;28;20366;-89
2022/04/15 01:10:26;;;;;;;6.88;2.10;;;15.80;99.90;;;;;;5032908;28;20105;-88
2022/04/15 01:12:54;;;;;;;3.55;2.03;;;15.80;99.90;;;;;;5032829;28;20477;-88
2022/04/15 01:15:27;;;;;;;4.13;1.90;;;15.80;99.90;;;;;;5015085;28;20120;-88
2022/04/15 01:17:53;;;;;;;5.20;2.20;;;15.80;99.90;;;;;;5032805;28;20103;-88
2022/04/15 01:20:20;;;;;;;4.47;2.20;;;15.80;99.90;;;;;;5015048;28;20423;-88
2022/04/15 01:23:05;;;;;;;3.92;2.00;;;15.70;99.90;;;;;;5014926;28;20053;-88
2022/04/15 01:25:31;;;;;;;6.10;2.00;;;15.80;99.90;;;;;;5032639;28;20052;-88
2022/04/15 01:27:58;;;;;;;6.88;2.38;;;15.70;99.90;;;;;;5014970;28;20022;-88
2022/04/15 01:30:23;;;;;;;9.23;2.38;;;15.70;99.90;;;;;;5014970;28;20492;-88
2022/04/15 01:32:49;;;;;;;4.97;2.30;;;15.70;99.90;;;;;;5014950;28;20021;-88
2022/04/15 01:35:19;;;;;;;5.75;2.30;;;15.70;99.90;;;;;;5032703;28;20480;-88
2022/04/15 01:37:46;;;;;;;6.50;2.55;;;15.70;99.90;;;;;;5014852;28;20175;-89
2022/04/15 01:40:14;;;;;;;5.80;2.55;;;15.70;99.90;;;;;;5032596;28;20384;-88
2022/04/15 01:42:41;;;;;;;4.53;2.30;;;15.70;99.90;;;;;;5017518;28;20022;-88
2022/04/15 01:45:10;;;;;;;4.20;2.15;;;15.70;99.90;;;;;;5036462;28;20393;-88
2022/04/15 01:47:36;;;;;;;4.72;2.08;;;15.70;99.90;;;;;;5018650;28;20021;-88
2022/04/15 01:50:04;;;;;;;3.03;2.00;;;15.70;99.90;;;;;;5036316;28;20018;-88
2022/04/15 01:52:29;;;;;;;3.72;2.38;;;15.70;99.90;;;;;;5018570;28;20018;-88
2022/04/15 01:54:55;;;;;;;6.72;2.75;;;15.60;99.90;;;;;;5036284;28;20025;-88
2022/04/15 01:57:21;;;;;;;6.13;2.33;;;15.60;99.90;;;;;;5036224;28;20044;-88
2022/04/15 01:59:46;;;;;;;5.63;2.65;;;15.60;99.90;;;;;;5036181;28;20100;-88
2022/04/15 02:02:12;;;;;;;5.25;2.88;;;15.60;99.90;;;;;;5036287;28;20412;-88
2022/04/15 02:04:38;;;;;;;5.22;2.58;;;15.60;99.90;;;;;;5018275;28;20029;-88
2022/04/15 02:07:04;;;;;;;5.28;2.40;;;15.60;99.90;;;;;;5036186;28;20033;-88
2022/04/15 02:09:30;;;;;;;6.38;2.35;;;15.60;99.90;;;;;;5018325;28;20032;-88
2022/04/15 02:11:56;;;;;;;5.85;2.50;;;15.60;99.90;;;;;;5018324;28;20058;-88
2022/04/15 02:14:22;;;;;;;5.15;2.47;;;15.60;99.90;;;;;;5018152;28;20029;-88
2022/04/15 02:16:51;;;;;;;3.97;2.20;;;15.60;99.90;;;;;;5035941;28;20500;-88
2022/04/15 02:19:17;;;;;;;3.97;2.20;;;15.60;99.90;;;;;;5018139;28;20022;-88
2022/04/15 02:21:43;;;;;;;4.47;2.20;;;15.60;99.90;;;;;;5017995;28;20065;-88
2022/04/15 02:24:08;;;;;;;7.88;2.67;;;15.50;99.90;;;;;;5018117;28;20025;-88
2022/04/15 02:26:34;;;;;;;5.32;2.40;;;15.50;99.90;;;;;;5035824;28;20104;-88
2022/04/15 02:29:00;;;;;;;3.70;2.67;;;15.50;99.90;;;;;;5017979;28;20174;-88
2022/04/15 02:31:26;;;;;;;6.47;3.00;;;15.50;99.90;;;;;;5017813;28;20134;-88
2022/04/15 02:33:52;;;;;;;4.85;2.47;;;15.50;99.90;;;;;;5018592;28;20043;-88
2022/04/15 02:36:18;;;;;;;5.53;2.63;;;15.50;99.90;;;;;;5035862;28;20100;-88
2022/04/15 02:38:43;;;;;;;6.68;2.50;;;15.50;99.90;;;;;;5017732;28;20033;-88
2022/04/15 02:41:10;;;;;;;4.95;2.50;;;15.50;99.90;;;;;;5017678;28;20037;-88
2022/04/15 02:43:38;;;;;;;4.75;2.30;;;15.50;99.90;;;;;;5017717;28;20427;-88
2022/04/15 02:46:06;;;;;;;4.88;2.28;;;15.50;99.90;;;;;;5035495;28;20018;-88
2022/04/15 02:48:32;;;;;;;8.30;2.60;;;15.40;99.90;;;;;;5017481;28;20021;-88
2022/04/15 02:51:00;;;;;;;5.00;2.70;;;15.50;99.90;;;;;;5017735;28;20080;-88
2022/04/15 02:53:26;;;;;;;4.13;2.67;;;15.40;99.90;;;;;;5017329;28;20452;-88
2022/04/15 02:55:52;;;;;;;7.28;2.85;;;15.40;99.90;;;;;;5035449;28;20104;-88
2022/04/15 02:58:19;;;;;;;5.38;2.50;;;15.40;99.90;;;;;;5017289;28;20029;-88
2022/04/15 03:00:45;;;;;;;2.92;2.45;;;15.40;99.90;;;;;;5035101;28;20025;-88
2022/04/15 03:03:13;;;;;;;5.32;2.50;;;15.40;99.90;;;;;;5017302;28;20037;-88
2022/04/15 03:05:40;;;;;;;5.50;3.10;;;15.40;99.90;;;;;;5017314;28;20029;-88
2022/04/15 03:08:06;;;;;;;7.25;3.15;;;15.40;99.90;;;;;;5017243;28;20420;-88
2022/04/15 03:10:32;;;;;;;4.00;2.83;;;15.40;99.90;;;;;;5017057;28;20384;-88
2022/04/15 03:12:58;;;;;;;6.82;2.53;;;15.40;99.90;;;;;;5017082;28;20018;-88
2022/04/15 03:15:24;;;;;;;4.35;2.30;;;15.40;99.90;;;;;;5017049;28;20029;-88
2022/04/15 03:17:49;;;;;;;4.13;2.67;;;15.30;99.90;;;;;;5016986;28;20025;-88
2022/04/15 03:20:15;;;;;;;5.13;2.78;;;15.30;99.90;;;;;;5016943;28;20025;-88
2022/04/15 03:22:43;;;;;;;6.63;2.80;;;15.30;99.90;;;;;;5016768;28;20527;-88
2022/04/15 03:25:11;;;;;;;3.63;2.50;;;15.30;99.90;;;;;;5016789;28;20095;-88
2022/04/15 03:27:37;;;;;;;4.10;2.53;;;15.30;99.90;;;;;;5016977;28;20163;-88
2022/04/15 03:30:04;;;;;;;5.00;3.20;;;15.30;99.90;;;;;;5016766;28;20120;-88
2022/04/15 03:32:30;;;;;;;7.72;3.25;;;15.30;99.90;;;;;;5034458;28;20018;-88
2022/04/15 03:34:57;;;;;;;7.70;2.67;;;15.30;99.90;;;;;;5016682;28;20124;-88
2022/04/15 03:37:23;;;;;;;7.13;2.90;;;15.30;99.90;;;;;;5016542;28;20029;-89
2022/04/15 03:39:50;;;;;;;5.47;2.47;;;15.30;99.90;;;;;;5016967;28;20079;-88
2022/04/15 03:42:15;;;;;;;5.60;2.70;;;15.30;99.90;;;;;;5016538;28;20039;-88
2022/04/15 03:44:41;;;;;;;5.10;2.47;;;15.30;99.90;;;;;;5034159;28;20100;-88
2022/04/15 03:47:07;;;;;;;6.25;2.40;;;15.30;99.90;;;;;;5034211;28;20024;-88
2022/04/15 03:49:33;;;;;;;7.07;3.53;;;15.30;99.90;;;;;;5016359;28;20036;-88
2022/04/15 03:52:00;;;;;;;6.03;3.33;;;15.20;99.90;;;;;;5016415;28;20022;-88
2022/04/15 03:54:26;;;;;;;5.55;3.08;;;15.20;99.90;;;;;;5016468;28;20447;-88
2022/04/15 03:56:52;;;;;;;6.28;2.70;;;15.20;99.90;;;;;;5034046;28;20113;-88
2022/04/15 03:59:17;;;;;;;5.32;3.28;;;15.20;99.90;;;;;;5016206;28;20061;-88
2022/04/15 04:01:43;;;;;;;5.82;2.92;;;15.20;99.90;;;;;;5016097;28;20034;-88
2022/04/15 04:04:09;;;;;;;5.05;2.63;;;15.20;99.90;;;;;;5015234;28;20500;-88
2022/04/15 04:06:35;;;;;;;5.55;3.05;;;15.20;99.90;;;;;;5016049;28;20120;-88
2022/04/15 04:09:01;;;;;;;4.90;2.78;;;15.20;99.90;;;;;;5016012;28;20043;-88
2022/04/15 04:11:27;;;;;;;5.25;2.80;;;15.20;99.90;;;;;;5033768;28;20473;-88
2022/04/15 04:13:53;;;;;;;4.68;2.50;;;15.20;99.90;;;;;;5033693;28;20097;-88
2022/04/15 04:16:18;;;;;;;5.35;2.97;;;15.10;99.90;;;;;;5015935;28;20033;-88
2022/04/15 04:18:45;;;;;;;6.85;2.63;;;15.10;99.90;;;;;;5015860;28;20108;-88
2022/04/15 04:21:11;;;;;;;5.18;2.53;;;15.10;99.90;;;;;;5015628;28;20057;-88
2022/04/15 04:23:38;;;;;;;4.20;2.65;;;15.10;99.90;;;;;;5033580;28;20025;-88
2022/04/15 04:26:04;;;;;;;5.90;2.55;;;15.10;99.90;;;;;;5033380;28;20381;-88
2022/04/15 04:28:31;;;;;;;7.30;3.10;;;15.10;99.90;;;;;;5015691;28;20025;-88
2022/04/15 04:30:57;;;;;;;6.35;2.15;;;15.10;99.90;;;;;;5015610;28;20426;-88
2022/04/15 04:33:23;;;;;;;4.75;2.90;;;15.10;99.90;;;;;;5015709;28;20021;-88
2022/04/15 04:35:50;;;;;;;3.72;2.47;;;15.10;99.90;;;;;;5033327;28;20030;-88
2022/04/15 04:38:15;;;;;;;8.40;2.83;;;15.10;99.90;;;;;;5015685;28;20029;-88
2022/04/15 04:40:42;;;;;;;4.65;2.50;;;15.00;99.90;;;;;;5015556;28;20037;-88
2022/04/15 04:43:09;;;;;;;5.13;2.53;;;15.00;99.90;;;;;;5015605;28;20030;-88
2022/04/15 04:45:35;;;;;;;3.75;2.50;;;15.00;99.90;;;;;;5033177;28;20021;-87
2022/04/15 04:48:03;;;;;;;4.85;2.42;;;15.00;99.90;;;;;;5015384;28;20124;-88
2022/04/15 04:50:30;;;;;;;5.55;2.72;;;15.00;99.90;;;;;;5015153;28;20025;-88
2022/04/15 04:52:56;;;;;;;7.57;2.70;;;15.00;99.90;;;;;;5015542;28;20048;-88
2022/04/15 04:55:21;;;;;;;3.05;2.50;;;15.00;99.90;;;;;;5015399;28;20038;-88
2022/04/15 04:57:47;;;;;;;4.20;2.50;;;15.00;99.90;;;;;;5015365;28;20029;-89
2022/04/15 05:00:15;;;;;;;3.45;2.50;;;15.00;99.90;;;;;;5015252;28;20029;-88
2022/04/15 05:02:41;;;;;;;5.10;2.75;;;15.00;99.90;;;;;;5015326;28;20030;-88
2022/04/15 05:05:08;;;;;;;7.07;2.80;;;15.00;99.90;;;;;;5015173;28;20032;-88
2022/04/15 05:07:34;;;;;;;6.13;2.53;;;15.00;99.90;;;;;;5033039;28;20436;-88
2022/04/15 05:10:00;;;;;;;2.85;2.20;;;14.90;99.90;;;;;;5015183;28;20076;-88
2022/04/15 05:12:25;;;;;;;5.53;2.90;;;15.00;99.90;;;;;;5015213;28;20018;-88
2022/04/15 05:14:52;;;;;;;3.67;2.38;;;15.00;99.90;;;;;;5032855;28;20057;-88
2022/04/15 05:17:18;;;;;;;5.13;2.30;;;15.00;99.90;;;;;;5035031;28;20029;-88
2022/04/15 05:19:44;;;;;;;5.00;2.70;;;14.90;99.90;;;;;;5019296;28;20032;-88
2022/04/15 05:22:11;;;;;;;4.35;2.42;;;14.90;99.90;;;;;;5019110;28;20053;-88
2022/04/15 05:24:37;;;;;;;4.65;2.78;;;14.90;99.90;;;;;;5019117;28;20022;-88
2022/04/15 05:27:03;;;;;;;4.30;2.50;;;14.90;99.90;;;;;;5019175;28;20036;-88
2022/04/15 05:29:29;;;;;;;3.63;2.50;;;14.90;99.90;;;;;;5037036;28;20068;-88
2022/04/15 05:31:55;;;;;;;5.95;2.45;;;14.90;99.90;;;;;;5018972;28;20102;-88
2022/04/15 05:34:20;;;;;;;6.88;2.42;;;14.90;99.90;;;;;;5019163;28;20531;-88
2022/04/15 05:36:46;;;;;;;3.40;2.58;;;15.00;99.90;;;;;;5019102;28;20036;-88
2022/04/15 05:39:12;;;;;;;5.40;2.45;;;14.90;99.90;;;;;;5036572;28;20025;-88
2022/04/15 05:41:37;;;;;;;4.45;2.08;;;14.90;99.90;;;;;;5018784;28;20028;-88
2022/04/15 05:44:04;;;;;;;5.07;2.45;;;14.90;99.90;;;;;;5018773;28;20025;-88
2022/04/15 05:46:32;;;;;;;4.05;2.38;;;14.90;99.90;;;;;;5018659;28;20040;-88
2022/04/15 05:48:58;;;;;;;5.70;2.63;;;14.90;99.90;;;;;;5018732;28;20044;-88
2022/04/15 05:51:24;;;;;;;3.33;2.70;;;14.90;99.90;;;;;;5036359;28;20025;-88
2022/04/15 05:53:49;;;;;;;3.78;2.78;;;14.90;99.90;;;;;;5018590;28;20057;-88
2022/04/15 05:56:15;;;;;;;3.75;2.40;;;14.90;99.90;;;;;;5018539;28;20041;-88
2022/04/15 05:58:41;;;;;;;6.15;2.78;;;14.90;99.90;;;;;;5018516;28;20033;-88
2022/04/15 06:01:09;;;;;;;4.88;2.70;;;15.00;99.90;;;;;;5036367;28;20078;-88
2022/04/15 06:03:37;;;;;;;3.97;2.55;;;14.90;99.90;;;;;;5018332;28;20079;-88
2022/04/15 06:06:03;;;;;;;4.20;2.30;;;14.90;99.90;;;;;;5018260;28;20053;-88
2022/04/15 06:08:29;;;;;;;5.95;2.30;;;15.00;99.90;;;;;;5018257;28;20018;-88
2022/04/15 06:10:55;;;;;;;3.95;2.45;;;15.00;99.90;;;;;;5018308;28;20037;-88
2022/04/15 06:13:25;;;;;;;6.40;2.88;;;14.90;99.90;;;;;;5018286;28;20029;-88
2022/04/15 06:15:56;;;;;;;5.00;2.60;;;15.00;99.90;;;;;;5018207;28;20060;-88
2022/04/15 06:18:34;;;;;;;4.85;2.42;;;15.00;99.90;;;;;;5018198;28;20029;-88
2022/04/15 06:21:01;;;;;;;5.43;2.67;;;15.00;99.90;;;;;;5017944;28;20051;-89
2022/04/15 06:23:26;;;;;;;4.28;2.67;;;15.00;99.90;;;;;;5018173;28;20025;-88
2022/04/15 06:25:52;;;;;;;3.88;2.47;;;15.10;99.90;;;;;;5035717;28;20025;-88
2022/04/15 06:28:21;;;;;;;6.70;2.50;;;15.10;99.90;;;;;;5035255;28;20034;-88
2022/04/15 06:30:47;;;;;;;4.50;2.60;;;15.10;99.90;;;;;;5017870;28;20033;-88
2022/04/15 06:33:16;;;;;;;3.30;2.47;;;15.10;99.90;;;;;;5035545;28;20053;-88
2022/04/15 06:35:42;;;;;;;3.97;2.53;;;15.10;99.90;;;;;;5017811;28;20492;-88
2022/04/15 06:38:07;;;;;;;3.38;2.22;;;15.20;99.90;;;;;;5035498;28;20026;-88
2022/04/15 06:40:34;;;;;;;4.53;2.33;;;15.20;99.90;;;;;;5017712;28;20029;-88
2022/04/15 06:43:00;;;;;;;2.92;1.95;;;15.20;99.90;;;;;;5035453;28;20087;-88
2022/04/15 06:45:25;;;;;;;4.50;2.42;;;15.20;99.90;;;;;;5017563;28;20025;-88
2022/04/15 06:47:51;;;;;;;4.20;2.25;;;15.20;99.90;;;;;;5017517;28;20025;-88
2022/04/15 06:50:17;;;;;;;4.38;2.10;;;15.20;99.90;;;;;;5017434;28;20488;-88
2022/04/15 06:52:43;;;;;;;4.60;2.03;;;15.30;99.90;;;;;;5035266;28;20091;-88
2022/04/15 06:55:09;;;;;;;5.18;2.17;;;15.30;99.90;;;;;;5017438;28;20021;-89
2022/04/15 06:57:34;;;;;;;3.55;2.17;;;15.30;99.90;;;;;;5017669;28;20040;-88
2022/04/15 07:00:00;;;;;;;5.00;2.47;;;15.40;99.90;;;;;;5017332;28;20366;-88
2022/04/15 07:02:26;;;;;;;6.70;2.20;;;15.40;99.90;;;;;;5017349;28;20393;-89
2022/04/15 07:04:52;;;;;;;4.57;2.40;;;15.40;99.90;;;;;;5017192;28;20030;-88
2022/04/15 07:07:18;;;;;;;3.47;2.53;;;15.40;99.90;;;;;;5017169;28;20022;-88
2022/04/15 07:09:49;;;;;;;3.90;2.58;;;15.40;99.90;;;;;;5017130;28;20112;-88
2022/04/15 07:12:15;;;;;;;4.05;2.47;;;15.50;99.90;;;;;;5034973;28;20018;-87
2022/04/15 07:14:41;;;;;;;3.58;2.17;;;15.50;99.90;;;;;;5034860;28;20036;-89
2022/04/15 07:17:06;;;;;;;6.22;2.88;;;15.50;99.90;;;;;;5017047;28;20485;-88
2022/04/15 07:19:32;;;;;;;4.65;3.20;;;15.50;99.90;;;;;;5017018;28;20029;-88
2022/04/15 07:21:58;;;;;;;5.35;3.20;;;15.60;99.90;;;;;;5016889;28;20132;-88
2022/04/15 07:24:23;;;;;;;3.95;2.40;;;15.60;99.90;;;;;;5034747;28;20033;-88
2022/04/15 07:26:49;;;;;;;4.38;2.30;;;15.60;99.90;;;;;;5016881;28;20022;-88
2022/04/15 07:29:15;;;;;;;4.57;2.58;;;15.70;99.90;;;;;;5016902;28;20026;-88
2022/04/15 07:31:42;;;;;;;4.32;2.47;;;15.70;99.90;;;;;;5016773;28;20048;-88
2022/04/15 07:34:08;;;;;;;4.28;3.13;;;15.70;99.90;;;;;;5034705;28;20021;-88
2022/04/15 07:39:07;;;;;;;3.95;3.25;;;15.80;99.90;;;;;;5033782;28;20469;-88
2022/04/15 07:41:37;;;;;;;6.32;3.42;;;15.90;99.90;;;;;;5016784;28;20389;-88
2022/04/15 07:44:10;;;;;;;5.35;3.60;;;15.90;99.90;;;;;;5034498;28;20037;-88
2022/04/15 07:46:37;;;;;;;5.13;3.90;;;15.90;99.90;;;;;;5016741;28;20469;-88
2022/04/15 07:49:03;;;;;;;5.90;4.47;;;15.90;99.90;;;;;;5016658;28;20029;-88
2022/04/15 07:51:30;;;;;;;7.88;3.60;;;16.00;99.90;;;;;;5016472;28;20052;-88
2022/04/15 07:53:56;;;;;;;3.28;2.97;;;16.00;99.90;;;;;;5016572;28;20022;-88
2022/04/15 07:56:21;;;;;;;3.97;3.08;;;16.00;99.90;;;;;;5016427;28;20025;-88
2022/04/15 07:58:48;;;;;;;5.03;3.95;;;16.00;99.90;;;;;;5016470;28;20449;-88
2022/04/15 08:01:14;;;;;;;6.95;4.20;;;16.00;99.90;;;;;;5016621;28;20052;-87
2022/04/15 08:03:40;;;;;;;6.55;4.63;;;16.00;99.90;;;;;;5016570;28;20033;-88
2022/04/15 08:06:06;;;;;;;8.27;4.35;;;16.00;99.90;;;;;;5016212;28;20030;-88
2022/04/15 08:08:32;;;;;;;5.93;4.30;;;16.00;99.90;;;;;;5016311;28;20500;-88
2022/04/15 08:10:57;;;;;;;5.95;4.32;;;16.00;99.90;;;;;;5033847;28;20025;-88
2022/04/15 08:13:24;;;;;;;5.00;3.60;;;16.00;99.90;;;;;;5016423;28;20476;-88
2022/04/15 08:15:53;;;;;;;6.72;4.15;;;16.00;99.90;;;;;;5016187;28;20035;-88
2022/04/15 08:18:22;;;;;;;5.13;4.00;;;16.00;99.90;;;;;;5016105;28;20064;-88
2022/04/15 08:20:50;;;;;;;5.70;4.00;;;16.00;99.90;;;;;;5018126;28;20033;-88
2022/04/15 08:23:16;;;;;;;5.78;4.20;;;16.00;99.90;;;;;;5035741;28;20029;-88
2022/04/15 08:25:43;;;;;;;7.13;4.40;;;16.00;99.90;;;;;;5035583;28;20021;-88
2022/04/15 08:28:11;;;;;;;6.90;4.30;;;16.00;99.90;;;;;;5053381;28;20052;-88
2022/04/15 08:30:37;;;;;;;6.07;4.35;;;16.10;99.90;;;;;;5035567;28;20021;-88
2022/04/15 08:33:07;;;;;;;6.50;4.22;;;16.10;99.90;;;;;;5035511;28;20026;-88
2022/04/15 08:35:36;;;;;;;5.40;3.78;;;16.10;99.90;;;;;;5053302;28;20032;-88
2022/04/15 08:38:02;;;;;;;6.00;4.07;;;16.10;99.90;;;;;;5053208;28;20033;-88
2022/04/15 08:40:33;;;;;;;5.10;3.90;;;16.10;99.90;;;;;;5053168;28;20036;-88
2022/04/15 08:43:00;;;;;;;4.18;3.30;;;16.10;99.90;;;;;;5035376;28;20047;-88
2022/04/15 08:45:27;;;;;;;4.15;3.58;;;16.10;99.90;;;;;;5053209;28;20385;-88
2022/04/15 08:47:59;;;;;;;8.15;4.50;;;16.10;99.90;;;;;;5035233;28;20055;-88
2022/04/15 08:50:27;;;;;;;5.07;3.60;;;16.20;99.90;;;;;;5052932;28;20040;-89
2022/04/15 08:52:53;;;;;;;5.50;3.50;;;16.20;99.90;;;;;;5035224;28;20021;-88
2022/04/15 08:55:22;;;;;;;4.60;3.50;;;16.20;99.90;;;;;;5035208;28;20058;-88
2022/04/15 08:57:49;;;;;;;5.82;3.38;;;16.20;99.90;;;;;;5035165;28;20032;-88
2022/04/15 09:00:15;;;;;;;4.63;3.78;;;16.30;99.90;;;;;;5034983;28;20143;-88
2022/04/15 09:02:41;;;;;;;4.22;3.53;;;16.30;99.90;;;;;;5035011;28;20032;-88
2022/04/15 09:05:08;;;;;;;4.50;3.47;;;16.40;99.90;;;;;;5035210;28;20048;-88
2022/04/15 09:07:36;;;;;;;6.45;4.28;;;16.40;99.90;;;;;;5034957;28;20021;-88
2022/04/15 09:10:04;;;;;;;5.45;3.55;;;16.40;99.90;;;;;;5052967;28;20411;-88
2022/04/15 09:12:30;;;;;;;8.57;4.20;;;16.40;99.90;;;;;;5052759;28;20088;-89
2022/04/15 09:15:14;;;;;;;4.55;3.80;;;16.50;99.90;;;;;;5034949;28;20047;-88
2022/04/15 09:17:42;;;;;;;4.53;3.70;;;16.50;99.90;;;;;;5035051;28;20071;-89
2022/04/15 09:20:09;;;;;;;4.47;3.92;;;16.50;99.90;;;;;;5034835;28;20021;-88
2022/04/15 09:22:36;;;;;;;7.15;3.90;;;16.60;99.90;;;;;;5034778;28;20041;-88
2022/04/15 09:25:03;;;;;;;5.30;3.65;;;16.60;99.90;;;;;;5034778;28;20033;-88
2022/04/15 09:27:29;;;;;;;4.45;3.78;;;16.60;99.90;;;;;;5034817;28;20032;-88
2022/04/15 09:29:55;;;;;;;4.70;3.70;;;16.60;99.90;;;;;;5034858;28;20501;-88
2022/04/15 09:32:23;;;;;;;5.47;4.03;;;16.60;99.90;;;;;;5034755;28;20025;-88
2022/04/15 09:35:06;;;;;;;7.50;3.78;;;16.50;99.90;;;;;;5052723;28;20025;-88
2022/04/15 09:37:39;;;;;;;5.53;4.15;;;16.50;99.90;;;;;;5052749;28;20506;-88
2022/04/15 09:40:18;;;;;;;6.35;3.75;;;16.50;99.90;;;;;;5034741;28;20057;-88
2022/04/15 09:42:53;;;;;;;7.47;4.53;;;16.50;99.90;;;;;;5034705;28;20025;-88
2022/04/15 09:45:30;;;;;;;4.75;4.05;;;16.40;99.90;;;;;;5034632;28;20029;-88
2022/04/15 09:48:01;;;;;;;6.82;3.95;;;16.50;99.90;;;;;;5052608;28;20021;-88
2022/04/15 09:50:43;;;;;;;8.68;5.07;;;16.50;99.90;;;;;;5034671;28;20053;-88
2022/04/15 09:53:10;;;;;;;7.18;4.00;;;16.50;99.90;;;;;;5052518;28;20036;-88
2022/04/15 09:55:39;;;;;;;6.00;4.75;;;16.60;99.90;;;;;;5034724;28;20036;-88
2022/04/15 09:58:12;;;;;;;7.15;4.50;;;16.50;99.90;;;;;;5052482;28;20392;-89
2022/04/15 10:00:39;;;;;;;6.88;4.10;;;16.60;99.90;;;;;;5052741;28;20107;-89
2022/04/15 10:03:08;;;;;;;6.45;4.10;;;16.70;99.90;;;;;;5036136;28;20089;-89
2022/04/15 10:05:36;;;;;;;5.72;3.88;;;16.70;99.90;;;;;;5038091;28;20033;-88
2022/04/15 10:08:02;;;;;;;6.65;4.07;;;16.70;99.90;;;;;;5056237;28;20053;-89
2022/04/15 10:10:29;;;;;;;5.78;4.32;;;16.70;99.90;;;;;;5038180;28;20017;-88
2022/04/15 10:12:58;;;;;;;6.38;4.00;;;16.70;99.90;;;;;;5038136;28;20032;-88
2022/04/15 10:15:24;;;;;;;4.70;3.78;;;16.70;99.90;;;;;;5037977;28;20029;-88
2022/04/15 10:17:50;;;;;;;6.18;3.65;;;16.70;99.90;;;;;;5038059;28;20036;-88
2022/04/15 10:20:16;;;;;;;4.38;3.28;;;16.70;99.90;;;;;;5056171;28;20104;-88
2022/04/15 10:22:43;;;;;;;4.55;3.53;;;16.70;99.90;;;;;;5037878;28;20499;-87
2022/04/15 10:25:09;;;;;;;7.07;3.58;;;16.70;99.90;;;;;;5038176;28;20404;-88
2022/04/15 10:27:35;;;;;;;6.18;3.30;;;16.60;99.90;;;;;;5055700;28;20025;-88
2022/04/15 10:30:19;;;;;;;5.88;3.63;;;16.60;99.90;;;;;;5037802;28;20021;-88
2022/04/15 10:32:57;;;;;;;8.48;3.60;;;16.60;99.90;;;;;;5038467;28;20017;-88
2022/04/15 10:35:30;;;;;;;4.15;3.15;;;16.60;99.90;;;;;;5037766;28;20032;-88
2022/04/15 10:37:57;;;;;;;5.10;3.20;;;16.60;99.90;;;;;;5037773;28;20021;-88
2022/04/15 10:40:26;;;;;;;5.40;3.35;;;16.60;99.90;;;;;;5037631;28;20459;-88
2022/04/15 10:42:52;;;;;;;4.28;2.90;;;16.70;99.90;;;;;;5037732;28;20486;-89
2022/04/15 10:45:29;;;;;;;6.57;3.40;;;16.70;99.90;;;;;;5037419;28;20102;-88
2022/04/15 10:47:59;;;;;;;4.43;3.13;;;16.70;99.90;;;;;;5055398;28;20025;-88
2022/04/15 10:50:30;;;;;;;5.20;3.20;;;16.70;99.90;;;;;;5037452;28;20031;-88
2022/04/15 10:53:18;;;;;;;5.45;3.60;;;16.70;99.90;;;;;;5037491;28;20026;-88
2022/04/15 10:55:49;;;;;;;6.25;3.50;;;16.70;99.90;;;;;;5038397;28;20075;-88
2022/04/15 10:58:16;;;;;;;6.32;3.50;;;16.70;99.90;;;;;;5037417;28;20021;-88
2022/04/15 11:03:29;;;;;;;7.38;3.35;;;16.70;99.90;;;;;;5055856;28;20055;-88
2022/04/15 11:05:59;;;;;;;4.90;3.15;;;16.80;99.90;;;;;;5037150;28;20032;-89
2022/04/15 11:08:27;;;;;;;4.60;3.08;;;16.80;99.90;;;;;;5037207;28;20124;-88
2022/04/15 11:10:54;;;;;;;4.85;3.38;;;16.80;99.90;;;;;;5055116;28;20048;-88
2022/04/15 11:13:24;;;;;;;5.40;3.70;;;16.80;99.90;;;;;;5036955;28;20025;-88
2022/04/15 11:15:58;;;;;;;4.80;3.30;;;16.80;99.90;;;;;;5036278;28;20116;-88
2022/04/15 11:18:42;;;;;;;7.03;3.08;;;16.80;99.90;;;;;;5037940;28;20048;-88
2022/04/15 11:21:08;;;;;;;4.80;3.20;;;16.90;99.90;;;;;;5054966;28;20044;-88
2022/04/15 11:23:33;;;;;;;5.05;2.90;;;16.90;99.90;;;;;;5036981;28;20028;-89
2022/04/15 11:26:00;;;;;;;5.30;2.92;;;17.00;99.90;;;;;;5036782;28;20033;-88
2022/04/15 11:28:27;;;;;;;4.55;3.22;;;17.10;99.90;;;;;;5054744;28;20024;-88
2022/04/15 11:30:53;;;;;;;4.05;2.83;;;17.10;99.90;;;;;;5036837;28;20052;-89
2022/04/15 11:33:19;;;;;;;4.97;3.35;;;17.10;99.90;;;;;;5036757;28;20457;-89
2022/04/15 11:35:46;;;;;;;6.22;3.50;;;17.10;99.90;;;;;;5036654;28;20041;-88
2022/04/15 11:38:12;;;;;;;4.82;3.05;;;17.10;99.90;;;;;;5036712;28;20434;-88
2022/04/15 11:40:43;;;;;;;5.75;2.70;;;17.20;99.90;;;;;;5036540;28;20464;-87
2022/04/15 11:43:10;;;;;;;3.75;2.65;;;17.20;99.90;;;;;;5036442;28;20020;-87
2022/04/15 11:45:39;;;;;;;4.65;2.70;;;17.20;99.90;;;;;;5036357;28;20112;-88
2022/04/15 11:48:15;;;;;;;4.05;2.67;;;17.20;99.90;;;;;;5036325;28;20027;-88
2022/04/15 11:50:42;;;;;;;4.85;2.80;;;17.20;99.90;;;;;;5036340;28;20025;-88
2022/04/15 11:53:07;;;;;;;4.38;2.88;;;17.20;99.90;;;;;;5036309;28;20122;-88
2022/04/15 11:55:45;;;;;;;5.25;2.72;;;17.20;99.90;;;;;;5036235;28;20056;-89
2022/04/15 11:58:12;;;;;;;3.83;2.70;;;17.30;99.90;;;;;;5036113;28;20033;-88
2022/04/15 12:00:37;;;;;;;4.68;2.90;;;17.30;99.90;;;;;;5035977;28;20055;-88
2022/04/15 12:03:04;;;;;;;4.82;2.45;;;17.30;99.90;;;;;;5035951;28;20025;-89
2022/04/15 12:05:29;;;;;;;4.70;2.83;;;17.30;99.90;;;;;;5036160;28;20033;-88
2022/04/15 12:07:55;;;;;;;5.00;2.90;;;17.30;99.90;;;;;;5036056;28;20021;-89
2022/04/15 12:10:21;;;;;;;6.05;3.10;;;17.30;99.90;;;;;;5035908;28;20024;-89
2022/04/15 12:12:49;;;;;;;5.45;2.75;;;17.30;99.90;;;;;;5035883;28;20021;-89
2022/04/15 12:15:14;;;;;;;8.52;3.53;;;17.30;99.90;;;;;;5035671;28;20051;-88
2022/04/15 12:17:41;;;;;;;6.63;2.75;;;17.30;99.90;;;;;;5053654;28;20028;-88
2022/04/15 12:20:08;;;;;;;4.82;2.58;;;17.30;99.90;;;;;;5035770;28;20033;-88
2022/04/15 12:22:35;;;;;;;3.97;3.10;;;17.30;99.90;;;;;;5053447;28;20124;-88
2022/04/15 12:25:18;;;;;;;3.17;2.28;;;17.30;99.90;;;;;;5035328;28;20033;-88
2022/04/15 12:27:47;;;;;;;3.40;2.45;;;17.30;99.90;;;;;;5036410;28;20071;-90
2022/04/15 12:30:16;;;;;;;4.20;2.60;;;17.40;99.90;;;;;;5035995;28;20492;-86
2022/04/15 12:32:44;;;;;;;4.55;3.15;;;17.50;99.90;;;;;;5035497;28;20025;-88
2022/04/15 12:35:13;;;;;;;4.63;3.03;;;17.50;99.90;;;;;;5035561;28;20120;-88
2022/04/15 12:37:49;;;;;;;4.10;2.90;;;17.50;99.90;;;;;;5053445;28;20091;-87
2022/04/15 12:40:14;;;;;;;4.28;2.65;;;17.60;99.90;;;;;;5035400;28;20025;-87
2022/04/15 12:42:44;;;;;;;5.13;3.08;;;17.70;99.90;;;;;;5035450;28;20468;-87
2022/04/15 12:45:16;;;;;;;3.42;2.53;;;17.70;99.90;;;;;;5035275;28;20021;-87
2022/04/15 12:47:45;;;;;;;5.60;2.92;;;17.80;99.90;;;;;;5053133;28;20472;-88
2022/04/15 12:50:22;;;;;;;4.68;2.78;;;17.90;99.90;;;;;;5035450;28;20025;-88
2022/04/15 12:52:49;;;;;;;4.10;2.35;;;18.00;99.90;;;;;;5035224;28;20028;-88
2022/04/15 12:55:25;;;;;;;4.55;2.80;;;18.10;99.90;;;;;;5035131;28;20025;-88